Time;durP1;ratioP1;P1;durP2;ratioP2;P2;SDS_P1;SDS_P2;PMS_P1;PMS_P2;Temp;Humidity;BMP_temperature;BMP_pressure;BME280_temperature;BME280_humidity;BME280_pressure;Samples;Min_cycle;Max_cycle;Signal;HPM_P1;HPM_P2
2023/09/06 00:01:27;;;;;;;303.77;295.02;;;;;;;;;;5023250;28;20739;-92
2023/09/06 00:03:55;;;;;;;310.08;301.00;;;;;;;;;;5025854;28;20215;-89
2023/09/06 00:06:21;;;;;;;309.20;300.25;;;;;;;;;;5024949;28;20178;-90
2023/09/06 00:08:47;;;;;;;326.40;316.98;;;;;;;;;;5023634;28;20725;-89
2023/09/06 00:11:14;;;;;;;322.73;313.25;;;;;;;;;;5041979;28;20199;-89
2023/09/06 00:13:40;;;;;;;363.73;353.13;;;;;;;;;;5030439;28;20189;-88
2023/09/06 00:16:07;;;;;;;363.60;352.88;;;;;;;;;;5021468;28;20972;-89
2023/09/06 00:18:33;;;;;;;372.98;361.73;;;;;;;;;;5022453;28;20173;-91
2023/09/06 00:20:59;;;;;;;378.17;366.98;;;;;;;;;;5022190;28;20197;-89
2023/09/06 00:23:26;;;;;;;370.80;359.80;;;;;;;;;;5022669;28;20194;-88
2023/09/06 00:25:55;;;;;;;372.42;361.30;;;;;;;;;;5022549;28;20221;-90
2023/09/06 00:28:24;;;;;;;368.42;357.55;;;;;;;;;;5023630;28;20241;-90
2023/09/06 00:30:50;;;;;;;385.17;373.70;;;;;;;;;;5023596;28;20204;-90
2023/09/06 00:33:16;;;;;;;365.52;354.63;;;;;;;;;;5023413;28;20181;-88
2023/09/06 00:35:43;;;;;;;381.30;369.73;;;;;;;;;;5023405;28;20284;-91
2023/09/06 00:38:10;;;;;;;354.48;344.08;;;;;;;;;;5022928;28;20178;-88
2023/09/06 00:40:37;;;;;;;326.63;317.02;;;;;;;;;;5023106;28;20189;-92
2023/09/06 00:43:03;;;;;;;344.10;333.90;;;;;;;;;;5023174;28;20281;-88
2023/09/06 00:45:31;;;;;;;340.40;330.55;;;;;;;;;;5022891;28;20209;-90
2023/09/06 00:47:58;;;;;;;346.42;336.33;;;;;;;;;;5003936;28;20190;-89
2023/09/06 00:50:28;;;;;;;354.45;344.00;;;;;;;;;;5016531;28;20208;-91
2023/09/06 00:52:54;;;;;;;347.60;337.40;;;;;;;;;;5022385;28;20193;-89
2023/09/06 00:55:21;;;;;;;320.77;311.27;;;;;;;;;;5022677;28;20327;-88
2023/09/06 00:57:47;;;;;;;299.50;290.80;;;;;;;;;;5022797;28;20680;-90
2023/09/06 01:00:23;;;;;;;304.02;295.23;;;;;;;;;;5022026;28;20270;-89
2023/09/06 01:02:49;;;;;;;285.95;277.55;;;;;;;;;;5020382;28;20267;-90
2023/09/06 01:05:16;;;;;;;306.10;296.77;;;;;;;;;;5015138;28;20192;-88
2023/09/06 01:07:54;;;;;;;323.20;313.48;;;;;;;;;;5008554;28;20212;-89
2023/09/06 01:10:20;;;;;;;306.58;297.48;;;;;;;;;;5028571;28;20206;-89
2023/09/06 01:12:47;;;;;;;313.48;304.23;;;;;;;;;;5041313;28;20774;-86
2023/09/06 01:15:13;;;;;;;310.17;300.90;;;;;;;;;;5040490;28;20182;-89
2023/09/06 01:17:41;;;;;;;311.95;302.80;;;;;;;;;;5039943;28;20208;-89
2023/09/06 01:20:27;;;;;;;307.35;298.08;;;;;;;;;;5026979;28;20192;-89
2023/09/06 01:22:59;;;;;;;255.18;247.43;;;;;;;;;;5002269;28;20259;-88
2023/09/06 01:25:25;;;;;;;244.15;236.90;;;;;;;;;;5004019;28;20256;-91
2023/09/06 01:27:51;;;;;;;270.77;262.77;;;;;;;;;;5005197;28;20270;-89
2023/09/06 01:30:18;;;;;;;272.85;264.80;;;;;;;;;;5004847;28;20204;-91
2023/09/06 01:32:44;;;;;;;290.90;282.50;;;;;;;;;;5005090;28;20316;-91
2023/09/06 01:35:10;;;;;;;306.40;297.38;;;;;;;;;;5005245;28;20198;-91
2023/09/06 01:37:37;;;;;;;326.33;316.67;;;;;;;;;;5004126;28;20238;-91
2023/09/06 01:40:13;;;;;;;327.33;317.63;;;;;;;;;;5013348;28;20210;-91
2023/09/06 01:42:38;;;;;;;313.97;304.53;;;;;;;;;;5024526;28;20185;-91
2023/09/06 01:45:06;;;;;;;304.60;295.77;;;;;;;;;;5024888;28;20174;-91
2023/09/06 01:47:32;;;;;;;303.97;295.13;;;;;;;;;;5025146;28;20181;-89
2023/09/06 01:49:58;;;;;;;311.33;302.07;;;;;;;;;;5025286;28;20295;-90
2023/09/06 01:52:24;;;;;;;306.60;297.60;;;;;;;;;;5032837;28;20173;-93
2023/09/06 01:54:50;;;;;;;303.20;294.20;;;;;;;;;;5034162;28;20162;-92
2023/09/06 01:57:16;;;;;;;286.83;278.43;;;;;;;;;;5027276;28;20201;-91
2023/09/06 01:59:42;;;;;;;283.10;274.90;;;;;;;;;;5029218;28;20185;-91
2023/09/06 02:02:08;;;;;;;276.73;268.50;;;;;;;;;;5022514;28;20190;-91
2023/09/06 02:04:34;;;;;;;247.03;239.63;;;;;;;;;;5023607;28;20179;-92
2023/09/06 02:07:02;;;;;;;251.90;244.52;;;;;;;;;;5023540;28;20191;-91
2023/09/06 02:09:28;;;;;;;269.30;261.40;;;;;;;;;;5029491;28;20184;-91
2023/09/06 02:11:55;;;;;;;273.92;265.98;;;;;;;;;;5042976;28;20203;-91
2023/09/06 02:14:22;;;;;;;275.80;267.80;;;;;;;;;;5011563;28;20190;-91
2023/09/06 02:16:50;;;;;;;270.33;262.42;;;;;;;;;;5002511;28;20228;-89
2023/09/06 02:19:16;;;;;;;269.85;261.95;;;;;;;;;;5002658;28;20185;-92
2023/09/06 02:21:42;;;;;;;265.67;257.48;;;;;;;;;;5003503;28;20223;-90
2023/09/06 02:24:08;;;;;;;268.95;261.20;;;;;;;;;;5003140;28;20170;-91
2023/09/06 02:26:35;;;;;;;279.25;270.80;;;;;;;;;;5003570;28;20185;-91
2023/09/06 02:29:01;;;;;;;268.75;260.85;;;;;;;;;;5003850;28;20186;-91
2023/09/06 02:31:27;;;;;;;266.67;259.02;;;;;;;;;;5019060;28;20212;-92
2023/09/06 02:33:55;;;;;;;269.52;261.67;;;;;;;;;;5023110;28;20173;-91
2023/09/06 02:36:21;;;;;;;264.05;256.52;;;;;;;;;;5022388;28;20223;-91
2023/09/06 02:38:48;;;;;;;280.83;272.43;;;;;;;;;;5022305;28;20192;-90
2023/09/06 02:41:14;;;;;;;260.50;252.93;;;;;;;;;;5023550;28;20209;-91
2023/09/06 02:43:40;;;;;;;230.87;224.10;;;;;;;;;;5024025;28;20236;-92
2023/09/06 02:46:06;;;;;;;221.67;215.20;;;;;;;;;;5023307;28;20184;-91
2023/09/06 02:48:33;;;;;;;202.67;196.47;;;;;;;;;;5019465;28;20255;-89
2023/09/06 02:50:59;;;;;;;206.37;200.27;;;;;;;;;;5023025;28;20295;-92
2023/09/06 02:53:26;;;;;;;223.07;216.43;;;;;;;;;;5024148;28;20181;-90
2023/09/06 02:55:53;;;;;;;215.00;208.73;;;;;;;;;;5021898;28;20183;-92
2023/09/06 02:58:26;;;;;;;230.32;223.63;;;;;;;;;;5024098;28;20223;-90
2023/09/06 03:00:57;;;;;;;235.57;228.67;;;;;;;;;;5023559;28;20191;-90
2023/09/06 03:03:26;;;;;;;253.63;245.68;;;;;;;;;;5024003;28;20303;-90
2023/09/06 03:05:56;;;;;;;262.38;254.80;;;;;;;;;;5022223;28;20175;-91
2023/09/06 03:08:25;;;;;;;262.88;255.07;;;;;;;;;;5022433;28;20199;-93
2023/09/06 03:10:52;;;;;;;277.00;268.95;;;;;;;;;;5040054;28;20198;-91
2023/09/06 03:13:20;;;;;;;308.65;299.63;;;;;;;;;;5042715;28;20202;-90
2023/09/06 03:15:51;;;;;;;291.00;282.48;;;;;;;;;;5042410;28;20266;-92
2023/09/06 03:18:16;;;;;;;289.25;280.58;;;;;;;;;;5043157;28;20192;-91
2023/09/06 03:20:42;;;;;;;285.98;277.58;;;;;;;;;;5027765;28;20223;-90
2023/09/06 03:23:19;;;;;;;278.92;270.33;;;;;;;;;;5007242;28;20230;-91
2023/09/06 03:25:45;;;;;;;279.30;271.05;;;;;;;;;;5005839;28;20184;-92
2023/09/06 03:28:11;;;;;;;261.83;253.90;;;;;;;;;;5007593;28;20241;-93
2023/09/06 03:30:38;;;;;;;248.45;240.95;;;;;;;;;;5007808;28;20671;-90
2023/09/06 03:33:06;;;;;;;224.73;218.07;;;;;;;;;;5007410;28;20180;-91
2023/09/06 03:35:32;;;;;;;243.03;235.87;;;;;;;;;;5006803;28;20274;-91
2023/09/06 03:37:58;;;;;;;238.43;231.40;;;;;;;;;;5016599;28;20677;-90
2023/09/06 03:40:25;;;;;;;239.80;232.50;;;;;;;;;;5021455;28;20206;-90
2023/09/06 03:42:54;;;;;;;243.23;236.13;;;;;;;;;;5025654;28;20179;-90
2023/09/06 03:45:21;;;;;;;242.93;235.83;;;;;;;;;;5026149;28;20184;-91
2023/09/06 03:47:51;;;;;;;269.10;260.97;;;;;;;;;;5026494;28;20188;-91
2023/09/06 03:50:17;;;;;;;239.57;232.60;;;;;;;;;;5027653;28;20218;-93
2023/09/06 03:52:43;;;;;;;242.40;235.40;;;;;;;;;;5014449;28;20201;-91
2023/09/06 03:55:10;;;;;;;232.63;225.30;;;;;;;;;;5006523;28;20194;-92
2023/09/06 03:57:37;;;;;;;205.23;198.93;;;;;;;;;;5006713;28;20215;-92
2023/09/06 04:02:49;;;;;;;194.23;188.37;;;;;;;;;;5007702;28;20903;-91
2023/09/06 04:05:15;;;;;;;193.87;187.97;;;;;;;;;;5013035;28;20198;-91
2023/09/06 04:07:43;;;;;;;204.80;198.50;;;;;;;;;;5023498;28;20186;-91
2023/09/06 04:10:16;;;;;;;194.50;188.37;;;;;;;;;;5029823;28;20237;-92
2023/09/06 04:12:43;;;;;;;185.27;179.50;;;;;;;;;;5046661;28;20172;-92
2023/09/06 04:15:12;;;;;;;174.17;168.87;;;;;;;;;;5045661;28;20190;-90
2023/09/06 04:17:40;;;;;;;170.27;164.97;;;;;;;;;;5044839;28;20260;-91
2023/09/06 04:20:18;;;;;;;187.67;181.97;;;;;;;;;;5045670;28;20197;-91
2023/09/06 04:22:45;;;;;;;184.73;179.10;;;;;;;;;;5027687;28;20193;-94
2023/09/06 04:25:11;;;;;;;186.10;180.27;;;;;;;;;;5014702;28;20174;-92
2023/09/06 04:27:39;;;;;;;192.90;186.90;;;;;;;;;;5013346;28;20256;-91
2023/09/06 04:30:06;;;;;;;209.10;202.63;;;;;;;;;;5009487;28;20574;-90
2023/09/06 04:32:34;;;;;;;216.40;209.40;;;;;;;;;;5004763;28;20204;-90
2023/09/06 04:35:00;;;;;;;219.50;212.93;;;;;;;;;;5004200;28;20185;-91
2023/09/06 04:37:26;;;;;;;214.63;208.23;;;;;;;;;;5004774;28;20261;-89
2023/09/06 04:39:53;;;;;;;199.63;193.73;;;;;;;;;;5004636;28;20192;-88
2023/09/06 04:42:19;;;;;;;200.23;194.13;;;;;;;;;;5004516;28;20200;-91
2023/09/06 04:44:45;;;;;;;195.53;189.63;;;;;;;;;;5013751;28;20187;-90
2023/09/06 04:47:15;;;;;;;182.63;177.13;;;;;;;;;;5023626;28;20190;-90
2023/09/06 04:49:42;;;;;;;178.30;172.53;;;;;;;;;;5025088;28;20191;-88
2023/09/06 04:52:08;;;;;;;159.10;154.00;;;;;;;;;;5017950;28;20228;-89
2023/09/06 04:54:34;;;;;;;161.80;156.53;;;;;;;;;;5003726;28;20178;-90
2023/09/06 04:57:00;;;;;;;184.40;177.90;;;;;;;;;;5002819;28;20241;-89
2023/09/06 04:59:26;;;;;;;181.77;175.40;;;;;;;;;;5018643;28;20640;-91
2023/09/06 05:01:52;;;;;;;177.43;170.53;;;;;;;;;;5021339;28;20207;-90
2023/09/06 05:04:19;;;;;;;197.00;190.50;;;;;;;;;;5022700;28;20189;-90
2023/09/06 05:06:45;;;;;;;212.73;205.43;;;;;;;;;;5024085;28;20568;-90
2023/09/06 05:09:15;;;;;;;248.13;240.37;;;;;;;;;;5026719;28;20188;-87
2023/09/06 05:11:41;;;;;;;255.60;247.00;;;;;;;;;;5043829;28;20212;-89
2023/09/06 05:14:07;;;;;;;250.30;242.53;;;;;;;;;;5044975;28;20189;-92
2023/09/06 05:16:33;;;;;;;249.70;241.13;;;;;;;;;;5043791;28;20206;-90
2023/09/06 05:18:59;;;;;;;256.60;248.43;;;;;;;;;;5043076;28;20181;-90
2023/09/06 05:21:25;;;;;;;273.33;264.97;;;;;;;;;;5029976;28;20194;-87
2023/09/06 05:23:51;;;;;;;280.60;271.73;;;;;;;;;;5008252;28;20203;-90
2023/09/06 05:26:17;;;;;;;263.33;255.23;;;;;;;;;;5009929;28;20186;-90
2023/09/06 05:28:43;;;;;;;281.77;272.73;;;;;;;;;;5022869;28;20185;-92
2023/09/06 05:31:09;;;;;;;276.53;267.63;;;;;;;;;;5022139;28;20236;-90
2023/09/06 05:33:35;;;;;;;299.10;289.63;;;;;;;;;;5030832;28;20178;-90
2023/09/06 05:36:03;;;;;;;284.47;275.73;;;;;;;;;;5033479;28;20173;-92
2023/09/06 05:38:29;;;;;;;262.67;254.67;;;;;;;;;;5022347;28;20276;-87
2023/09/06 05:40:55;;;;;;;286.00;276.97;;;;;;;;;;5029640;28;20234;-92
2023/09/06 05:43:21;;;;;;;314.60;304.77;;;;;;;;;;5030389;28;20186;-90
2023/09/06 05:45:47;;;;;;;316.27;306.83;;;;;;;;;;5031941;28;20189;-87
2023/09/06 05:48:13;;;;;;;267.47;259.37;;;;;;;;;;5029522;28;20194;-90
2023/09/06 05:50:39;;;;;;;266.43;258.50;;;;;;;;;;5024655;28;20523;-87
2023/09/06 05:53:05;;;;;;;260.50;252.80;;;;;;;;;;5023990;28;20558;-89
2023/09/06 05:55:31;;;;;;;251.67;243.87;;;;;;;;;;5023972;28;20227;-90
2023/09/06 05:57:57;;;;;;;239.47;232.30;;;;;;;;;;5014908;28;20262;-90
2023/09/06 06:00:26;;;;;;;244.27;236.77;;;;;;;;;;5029467;28;20194;-90
2023/09/06 06:02:55;;;;;;;261.73;253.23;;;;;;;;;;5035212;28;20166;-90
2023/09/06 06:05:21;;;;;;;262.20;253.43;;;;;;;;;;5029366;28;20182;-90
2023/09/06 06:07:47;;;;;;;260.70;252.70;;;;;;;;;;5024123;28;20198;-90
2023/09/06 06:10:13;;;;;;;276.17;267.07;;;;;;;;;;5023246;28;20212;-89
2023/09/06 06:12:40;;;;;;;276.70;268.33;;;;;;;;;;5021955;28;20195;-89
2023/09/06 06:15:09;;;;;;;270.60;262.37;;;;;;;;;;5022013;28;20222;-90
2023/09/06 06:17:35;;;;;;;224.10;217.35;;;;;;;;;;5022305;28;20283;-89
2023/09/06 06:20:03;;;;;;;212.17;205.90;;;;;;;;;;5022436;28;20216;-89
2023/09/06 06:22:29;;;;;;;207.88;201.48;;;;;;;;;;5022866;28;20215;-88
2023/09/06 06:25:00;;;;;;;222.88;216.25;;;;;;;;;;5023642;28;20243;-88
2023/09/06 06:27:26;;;;;;;290.63;282.10;;;;;;;;;;5023405;28;20176;-89
2023/09/06 06:29:52;;;;;;;284.55;276.17;;;;;;;;;;5005535;28;20188;-91
2023/09/06 06:32:19;;;;;;;349.80;339.23;;;;;;;;;;5003460;28;20178;-89
2023/09/06 06:34:49;;;;;;;321.55;311.83;;;;;;;;;;5002611;28;20215;-90
2023/09/06 06:37:15;;;;;;;311.50;302.40;;;;;;;;;;5016212;28;20212;-90
2023/09/06 06:39:41;;;;;;;359.38;348.88;;;;;;;;;;5026076;28;20180;-90
2023/09/06 06:42:07;;;;;;;363.08;352.27;;;;;;;;;;5041397;28;20260;-92
2023/09/06 06:44:34;;;;;;;339.98;329.77;;;;;;;;;;5041933;28;20180;-88
2023/09/06 06:47:00;;;;;;;298.80;289.55;;;;;;;;;;5009394;28;20192;-91
2023/09/06 06:49:26;;;;;;;232.63;225.50;;;;;;;;;;5017558;28;20516;-90
2023/09/06 06:51:52;;;;;;;254.02;246.52;;;;;;;;;;5022402;28;20230;-90
2023/09/06 06:54:19;;;;;;;270.58;262.58;;;;;;;;;;5021053;28;20242;-90
2023/09/06 06:56:46;;;;;;;289.52;280.73;;;;;;;;;;5021000;28;20320;-90
2023/09/06 06:59:13;;;;;;;293.88;284.70;;;;;;;;;;5022237;28;20636;-90
2023/09/06 07:01:39;;;;;;;391.90;379.98;;;;;;;;;;5020850;28;20299;-89
2023/09/06 07:04:05;;;;;;;389.23;377.48;;;;;;;;;;5021798;28;20264;-89
2023/09/06 07:06:31;;;;;;;391.05;378.83;;;;;;;;;;5021184;28;20720;-90
2023/09/06 07:08:58;;;;;;;339.02;329.10;;;;;;;;;;5022392;28;20709;-91
2023/09/06 07:11:24;;;;;;;382.23;370.42;;;;;;;;;;5041134;28;20264;-90
2023/09/06 07:13:51;;;;;;;383.08;371.55;;;;;;;;;;5041845;28;20169;-90
2023/09/06 07:16:17;;;;;;;333.65;323.52;;;;;;;;;;5005578;28;20245;-88
2023/09/06 07:18:44;;;;;;;386.05;374.02;;;;;;;;;;5000954;28;20178;-90
2023/09/06 07:21:10;;;;;;;396.90;384.92;;;;;;;;;;5013358;28;20292;-90
2023/09/06 07:23:36;;;;;;;420.10;406.58;;;;;;;;;;5021699;28;20198;-89
2023/09/06 07:26:04;;;;;;;399.33;386.90;;;;;;;;;;5021942;28;20177;-89
2023/09/06 07:28:36;;;;;;;418.92;406.10;;;;;;;;;;5022049;28;20555;-90
2023/09/06 07:31:02;;;;;;;474.17;459.05;;;;;;;;;;5020429;28;20556;-89
2023/09/06 07:33:28;;;;;;;383.70;372.20;;;;;;;;;;5019537;28;20182;-89
2023/09/06 07:35:54;;;;;;;446.90;432.42;;;;;;;;;;5021309;28;20258;-89
2023/09/06 07:38:20;;;;;;;456.73;441.88;;;;;;;;;;5021666;28;20170;-89
2023/09/06 07:40:46;;;;;;;422.20;408.80;;;;;;;;;;5020643;28;20552;-89
2023/09/06 07:43:12;;;;;;;404.85;392.40;;;;;;;;;;5021532;28;20229;-90
2023/09/06 07:45:38;;;;;;;390.48;378.77;;;;;;;;;;5020797;28;20178;-91
2023/09/06 07:48:04;;;;;;;394.95;382.85;;;;;;;;;;5019516;28;20686;-89
2023/09/06 07:50:34;;;;;;;435.35;422.05;;;;;;;;;;5020479;28;20214;-88
2023/09/06 07:53:00;;;;;;;397.27;385.40;;;;;;;;;;5018061;28;20630;-89
2023/09/06 07:55:27;;;;;;;423.20;410.27;;;;;;;;;;5019577;28;20201;-90
2023/09/06 07:57:54;;;;;;;429.55;416.25;;;;;;;;;;5020246;28;20209;-89
2023/09/06 08:00:20;;;;;;;425.13;412.02;;;;;;;;;;5020173;28;20194;-90
2023/09/06 08:02:46;;;;;;;434.95;420.83;;;;;;;;;;5018691;28;20589;-90
2023/09/06 08:05:12;;;;;;;429.83;416.58;;;;;;;;;;5020719;28;20234;-89
2023/09/06 08:07:38;;;;;;;426.13;413.30;;;;;;;;;;5021726;28;20174;-90
2023/09/06 08:10:09;;;;;;;435.67;421.77;;;;;;;;;;5035136;28;20193;-90
2023/09/06 08:12:35;;;;;;;458.55;444.00;;;;;;;;;;5031979;28;20208;-90
2023/09/06 08:15:02;;;;;;;1242.65;734.95;;;;;;;;;;5023984;28;20239;-92
2023/09/06 08:17:28;;;;;;;1999.90;999.90;;;;;;;;;;5023002;28;20281;-90
2023/09/06 08:19:54;;;;;;;1999.90;999.90;;;;;;;;;;5023378;28;20176;-90
2023/09/06 08:22:20;;;;;;;1999.90;999.90;;;;;;;;;;5023324;28;20687;-90
2023/09/06 08:24:46;;;;;;;1999.90;999.90;;;;;;;;;;5022348;28;20178;-89
2023/09/06 08:27:12;;;;;;;1999.90;999.90;;;;;;;;;;5023973;28;20216;-92
2023/09/06 08:29:38;;;;;;;1999.90;999.90;;;;;;;;;;5022748;28;20189;-90
2023/09/06 08:32:04;;;;;;;1999.90;999.90;;;;;;;;;;5019873;28;20285;-90
2023/09/06 08:34:30;;;;;;;1999.90;999.90;;;;;;;;;;5041463;28;20173;-89
2023/09/06 08:36:56;;;;;;;1999.90;999.90;;;;;;;;;;5042566;28;20258;-89
2023/09/06 08:39:22;;;;;;;1999.90;999.90;;;;;;;;;;5042351;28;20176;-89
2023/09/06 08:41:49;;;;;;;1999.90;999.90;;;;;;;;;;5041262;28;20885;-92
2023/09/06 08:44:18;;;;;;;1999.90;999.90;;;;;;;;;;5042781;28;20208;-90
2023/09/06 08:46:45;;;;;;;1999.90;999.90;;;;;;;;;;5013010;28;20186;-90
2023/09/06 08:49:12;;;;;;;1999.90;999.90;;;;;;;;;;5005028;28;20209;-90
2023/09/06 08:51:39;;;;;;;1999.90;999.90;;;;;;;;;;5005021;28;20205;-91
2023/09/06 08:54:05;;;;;;;1999.90;999.90;;;;;;;;;;5004602;28;20178;-92
2023/09/06 08:56:32;;;;;;;1999.90;999.90;;;;;;;;;;5023094;28;20674;-89
2023/09/06 08:58:59;;;;;;;1999.90;999.90;;;;;;;;;;5023559;28;20278;-89
2023/09/06 09:01:25;;;;;;;1999.90;999.90;;;;;;;;;;5022818;28;20205;-89
2023/09/06 09:03:51;;;;;;;1999.90;999.90;;;;;;;;;;5023316;28;20185;-90
2023/09/06 09:06:17;;;;;;;1999.90;999.90;;;;;;;;;;5023497;28;20193;-88
2023/09/06 09:08:43;;;;;;;1999.90;999.90;;;;;;;;;;5021854;28;20189;-91
2023/09/06 09:11:14;;;;;;;1999.90;999.90;;;;;;;;;;5002983;28;20202;-88
2023/09/06 09:13:41;;;;;;;1999.90;999.90;;;;;;;;;;5003951;28;20187;-90
2023/09/06 09:16:08;;;;;;;1999.90;999.90;;;;;;;;;;5002681;28;20182;-91
2023/09/06 09:18:34;;;;;;;1999.90;999.90;;;;;;;;;;5002239;28;20326;-92
2023/09/06 09:21:03;;;;;;;1999.90;999.90;;;;;;;;;;5003081;28;20218;-91
2023/09/06 09:23:30;;;;;;;1999.90;999.90;;;;;;;;;;5001841;28;20208;-91
2023/09/06 09:25:57;;;;;;;1999.90;999.90;;;;;;;;;;5010614;28;20182;-89
2023/09/06 09:28:24;;;;;;;1999.90;999.90;;;;;;;;;;5024160;28;20181;-90
2023/09/06 09:30:51;;;;;;;1999.90;999.90;;;;;;;;;;5024130;28;20201;-89
2023/09/06 09:33:18;;;;;;;1999.90;999.90;;;;;;;;;;5025661;28;20256;-91
2023/09/06 09:35:45;;;;;;;1999.90;999.90;;;;;;;;;;5025064;28;20184;-89
2023/09/06 09:38:11;;;;;;;1999.90;999.90;;;;;;;;;;5024476;28;20295;-92
2023/09/06 09:40:37;;;;;;;1999.90;999.90;;;;;;;;;;5023474;28;20197;-90
2023/09/06 09:43:06;;;;;;;1999.90;999.90;;;;;;;;;;5022868;28;20189;-90
2023/09/06 09:45:45;;;;;;;1999.90;999.90;;;;;;;;;;5022178;28;20277;-91
2023/09/06 09:48:11;;;;;;;1999.90;999.90;;;;;;;;;;5020610;28;20215;-92
2023/09/06 09:50:41;;;;;;;1999.90;999.90;;;;;;;;;;5022669;28;20209;-90
2023/09/06 09:53:10;;;;;;;1999.90;999.90;;;;;;;;;;5022620;28;20178;-90
2023/09/06 09:55:41;;;;;;;1999.90;999.90;;;;;;;;;;5020337;28;20181;-92
2023/09/06 09:58:09;;;;;;;1999.90;999.90;;;;;;;;;;5022306;28;20224;-91
2023/09/06 10:00:39;;;;;;;1999.90;999.90;;;;;;;;;;5019286;28;20195;-90
2023/09/06 10:03:06;;;;;;;1999.90;999.90;;;;;;;;;;5013408;28;20195;-90
2023/09/06 10:05:33;;;;;;;1999.90;999.90;;;;;;;;;;5018358;28;20731;-91
2023/09/06 10:08:01;;;;;;;1999.90;999.90;;;;;;;;;;5002800;28;20243;-90
2023/09/06 10:10:32;;;;;;;1999.90;999.90;;;;;;;;;;5031268;28;20209;-91
2023/09/06 10:13:01;;;;;;;1999.90;999.90;;;;;;;;;;5042538;28;20180;-89
2023/09/06 10:15:28;;;;;;;1999.90;999.90;;;;;;;;;;5033465;28;20268;-91
2023/09/06 10:17:55;;;;;;;1999.90;999.90;;;;;;;;;;5021712;28;20236;-91
2023/09/06 10:20:26;;;;;;;1999.90;999.90;;;;;;;;;;5022820;28;20281;-92
2023/09/06 10:22:55;;;;;;;1999.90;999.90;;;;;;;;;;5022170;28;20247;-92
2023/09/06 10:25:21;;;;;;;1999.90;999.90;;;;;;;;;;5022357;28;20178;-90
2023/09/06 10:27:48;;;;;;;1999.90;999.90;;;;;;;;;;5021599;28;20185;-90
2023/09/06 10:30:17;;;;;;;1999.90;999.90;;;;;;;;;;5021601;28;20201;-90
2023/09/06 10:32:43;;;;;;;1999.90;999.90;;;;;;;;;;5021485;28;20241;-92
2023/09/06 10:35:20;;;;;;;1999.90;999.90;;;;;;;;;;5022241;28;20244;-91
2023/09/06 10:38:05;;;;;;;1999.90;999.90;;;;;;;;;;5022409;28;20280;-91
2023/09/06 10:40:50;;;;;;;1999.90;999.90;;;;;;;;;;5019336;28;20208;-88
2023/09/06 10:43:16;;;;;;;1999.90;999.90;;;;;;;;;;5019892;28;20181;-92
2023/09/06 10:45:54;;;;;;;1999.90;999.90;;;;;;;;;;5019044;28;20188;-91
2023/09/06 10:48:21;;;;;;;1999.90;999.90;;;;;;;;;;5019956;28;20200;-91
2023/09/06 10:51:06;;;;;;;1999.90;999.90;;;;;;;;;;5021502;28;20194;-92
2023/09/06 10:53:33;;;;;;;1999.90;999.90;;;;;;;;;;5022525;28;20184;-91
2023/09/06 10:56:01;;;;;;;1999.90;999.90;;;;;;;;;;5022094;28;20184;-92
2023/09/06 10:58:29;;;;;;;1999.90;999.90;;;;;;;;;;5019755;28;20177;-92
2023/09/06 11:01:13;;;;;;;1999.90;999.90;;;;;;;;;;5010335;28;20198;-89
2023/09/06 11:03:39;;;;;;;1999.90;999.90;;;;;;;;;;5010188;28;20191;-89
2023/09/06 11:06:05;;;;;;;1999.90;999.90;;;;;;;;;;5021277;28;20192;-93
2023/09/06 11:08:32;;;;;;;1999.90;999.90;;;;;;;;;;5005361;28;20636;-91
2023/09/06 11:11:01;;;;;;;1999.90;999.90;;;;;;;;;;5040503;28;20205;-92
2023/09/06 11:13:30;;;;;;;1999.90;999.90;;;;;;;;;;5037299;28;20182;-89
2023/09/06 11:15:56;;;;;;;1999.90;999.90;;;;;;;;;;5022584;28;20166;-90
2023/09/06 11:18:22;;;;;;;1999.90;999.90;;;;;;;;;;5021841;28;20181;-92
2023/09/06 11:20:49;;;;;;;1999.90;999.90;;;;;;;;;;5021947;28;20229;-91
2023/09/06 11:23:16;;;;;;;1999.90;999.90;;;;;;;;;;5021508;28;20228;-91
2023/09/06 11:25:42;;;;;;;1999.90;999.90;;;;;;;;;;5021776;28;20185;-91
2023/09/06 11:28:31;;;;;;;1999.90;999.90;;;;;;;;;;5021562;28;20182;-90
2023/09/06 11:31:00;;;;;;;1999.90;999.90;;;;;;;;;;5019139;28;20233;-92
2023/09/06 11:33:30;;;;;;;1999.90;999.90;;;;;;;;;;5019053;28;20189;-91
2023/09/06 11:35:58;;;;;;;1999.90;999.90;;;;;;;;;;5022338;28;20181;-90
2023/09/06 11:38:28;;;;;;;1999.90;999.90;;;;;;;;;;5021968;28;20202;-91
2023/09/06 11:41:03;;;;;;;1999.90;999.90;;;;;;;;;;5022398;28;20239;-92
2023/09/06 11:43:30;;;;;;;1999.90;999.90;;;;;;;;;;5024550;28;20173;-92
2023/09/06 11:46:03;;;;;;;1999.90;999.90;;;;;;;;;;5026584;28;20247;-88
2023/09/06 11:48:30;;;;;;;1999.90;999.90;;;;;;;;;;5013915;28;20580;-89
2023/09/06 11:51:08;;;;;;;1999.90;999.90;;;;;;;;;;5006174;28;20194;-89
2023/09/06 11:53:35;;;;;;;1999.90;999.90;;;;;;;;;;5006359;28;20232;-90
2023/09/06 11:56:05;;;;;;;1999.90;999.90;;;;;;;;;;5006993;28;20178;-91
2023/09/06 11:58:34;;;;;;;1999.90;999.90;;;;;;;;;;5018367;28;20216;-90
2023/09/06 12:01:01;;;;;;;1999.90;999.90;;;;;;;;;;5016950;28;20205;-89
2023/09/06 12:03:34;;;;;;;1999.90;999.90;;;;;;;;;;5013758;28;20196;-90
2023/09/06 12:06:00;;;;;;;1999.90;999.90;;;;;;;;;;5017015;28;20178;-91
2023/09/06 12:08:29;;;;;;;1999.90;999.90;;;;;;;;;;5016653;28;20197;-91
2023/09/06 12:11:05;;;;;;;1999.90;999.90;;;;;;;;;;5016857;28;20265;-91
2023/09/06 12:13:34;;;;;;;1999.90;999.90;;;;;;;;;;5017476;28;20181;-91
2023/09/06 12:16:01;;;;;;;1999.90;999.90;;;;;;;;;;5015793;28;20186;-91
2023/09/06 12:18:28;;;;;;;1999.90;999.90;;;;;;;;;;5015504;28;20248;-92
2023/09/06 12:20:54;;;;;;;1999.90;999.90;;;;;;;;;;5013022;28;20272;-91
2023/09/06 12:23:32;;;;;;;1999.90;999.90;;;;;;;;;;5015725;28;20214;-90
2023/09/06 12:25:59;;;;;;;1999.90;999.90;;;;;;;;;;5014699;28;20482;-90
2023/09/06 12:28:25;;;;;;;1999.90;999.90;;;;;;;;;;5013400;28;20492;-91
2023/09/06 12:30:55;;;;;;;1999.90;999.90;;;;;;;;;;5012757;28;20386;-90
2023/09/06 12:33:24;;;;;;;1999.90;999.90;;;;;;;;;;5012656;28;20190;-91
2023/09/06 12:36:00;;;;;;;1999.90;999.90;;;;;;;;;;5013529;28;20272;-92
2023/09/06 12:38:30;;;;;;;1999.90;999.90;;;;;;;;;;5015911;28;20550;-89
2023/09/06 12:40:57;;;;;;;1999.90;999.90;;;;;;;;;;5013957;28;20746;-92
2023/09/06 12:43:24;;;;;;;1999.90;999.90;;;;;;;;;;5015426;28;20248;-94
2023/09/06 12:45:53;;;;;;;1999.90;999.90;;;;;;;;;;5018147;28;20193;-93
2023/09/06 12:48:19;;;;;;;1999.90;999.90;;;;;;;;;;5014732;28;20216;-94
2023/09/06 12:50:45;;;;;;;1999.90;999.90;;;;;;;;;;5013256;28;20695;-91
2023/09/06 12:53:11;;;;;;;1999.90;999.90;;;;;;;;;;5014867;28;20178;-91
2023/09/06 12:55:38;;;;;;;1999.90;999.90;;;;;;;;;;5015122;28;20185;-92
2023/09/06 12:58:05;;;;;;;1999.90;999.90;;;;;;;;;;5018416;28;20198;-92
2023/09/06 13:00:31;;;;;;;1999.90;999.90;;;;;;;;;;5014578;28;20220;-92
2023/09/06 13:02:57;;;;;;;1999.90;999.90;;;;;;;;;;5015276;28;20188;-90
2023/09/06 13:05:23;;;;;;;1999.90;999.90;;;;;;;;;;5013513;28;20183;-92
2023/09/06 13:07:49;;;;;;;1999.90;999.90;;;;;;;;;;5015601;28;20225;-91
2023/09/06 13:10:17;;;;;;;1999.90;999.90;;;;;;;;;;5013636;28;20213;-90
2023/09/06 13:12:44;;;;;;;1999.90;999.90;;;;;;;;;;5013482;28;20213;-92
2023/09/06 13:15:10;;;;;;;1999.90;999.90;;;;;;;;;;5012777;28;20189;-89
2023/09/06 13:17:36;;;;;;;1999.90;999.90;;;;;;;;;;5011335;28;20221;-91
2023/09/06 13:20:07;;;;;;;1999.90;999.90;;;;;;;;;;5011219;28;20177;-91
2023/09/06 13:22:33;;;;;;;1999.90;999.90;;;;;;;;;;5011693;28;20193;-93
2023/09/06 13:24:59;;;;;;;1999.90;999.90;;;;;;;;;;5009691;28;20190;-90
2023/09/06 13:27:25;;;;;;;1999.90;999.90;;;;;;;;;;5011158;28;20213;-91
2023/09/06 13:29:55;;;;;;;1999.90;999.90;;;;;;;;;;5010644;28;20181;-92
2023/09/06 13:32:21;;;;;;;1999.90;999.90;;;;;;;;;;5009550;28;20193;-89
2023/09/06 13:34:47;;;;;;;1999.90;999.90;;;;;;;;;;5011357;28;20204;-93
2023/09/06 13:37:13;;;;;;;1999.90;999.90;;;;;;;;;;5012234;28;20209;-90
2023/09/06 13:39:39;;;;;;;1999.90;999.90;;;;;;;;;;5007779;28;20192;-91
2023/09/06 13:42:05;;;;;;;1999.90;999.90;;;;;;;;;;5011341;28;20208;-89
2023/09/06 13:44:33;;;;;;;1999.90;999.90;;;;;;;;;;5011614;28;20241;-93
2023/09/06 13:47:01;;;;;;;1999.90;999.90;;;;;;;;;;5011312;28;20232;-90
2023/09/06 13:49:27;;;;;;;1999.90;999.90;;;;;;;;;;5009484;28;20185;-88
2023/09/06 13:51:53;;;;;;;1999.90;999.90;;;;;;;;;;5010324;28;20281;-89